sensor_id;sensor_type;location;lat;lon;timestamp;P1;durP1;ratioP1;P2;durP2;ratioP2
62509;SDS011;48558;48.242;11.654;2022-09-17T00:01:25;3.92;;;2.78;;
62509;SDS011;48558;48.242;11.654;2022-09-17T00:05:39;3.17;;;2.80;;
62509;SDS011;48558;48.242;11.654;2022-09-17T00:09:52;3.35;;;2.75;;
62509;SDS011;48558;48.242;11.654;2022-09-17T00:14:06;5.97;;;2.90;;
62509;SDS011;48558;48.242;11.654;2022-09-17T00:18:21;5.32;;;3.28;;
62509;SDS011;48558;48.242;11.654;2022-09-17T00:22:35;3.83;;;2.97;;
62509;SDS011;48558;48.242;11.654;2022-09-17T00:26:49;3.60;;;2.85;;
62509;SDS011;48558;48.242;11.654;2022-09-17T00:31:12;4.13;;;2.75;;
62509;SDS011;48558;48.242;11.654;2022-09-17T00:35:25;5.32;;;2.90;;
62509;SDS011;48558;48.242;11.654;2022-09-17T00:39:39;3.92;;;2.40;;
62509;SDS011;48558;48.242;11.654;2022-09-17T00:43:53;2.42;;;1.90;;
62509;SDS011;48558;48.242;11.654;2022-09-17T00:48:09;4.03;;;2.45;;
62509;SDS011;48558;48.242;11.654;2022-09-17T00:52:28;2.08;;;1.77;;
62509;SDS011;48558;48.242;11.654;2022-09-17T00:56:46;2.15;;;1.65;;
62509;SDS011;48558;48.242;11.654;2022-09-17T01:01:00;2.22;;;1.85;;
62509;SDS011;48558;48.242;11.654;2022-09-17T01:05:45;1.63;;;1.55;;
62509;SDS011;48558;48.242;11.654;2022-09-17T01:11:07;2.40;;;1.50;;
62509;SDS011;48558;48.242;11.654;2022-09-17T01:19:10;2.85;;;1.35;;
62509;SDS011;48558;48.242;11.654;2022-09-17T01:23:39;1.50;;;1.40;;
62509;SDS011;48558;48.242;11.654;2022-09-17T01:28:23;1.50;;;1.30;;
62509;SDS011;48558;48.242;11.654;2022-09-17T01:33:29;1.30;;;1.20;;
62509;SDS011;48558;48.242;11.654;2022-09-17T01:37:35;1.50;;;1.40;;
62509;SDS011;48558;48.242;11.654;2022-09-17T01:42:02;1.70;;;1.40;;
62509;SDS011;48558;48.242;11.654;2022-09-17T01:46:39;1.67;;;1.58;;
62509;SDS011;48558;48.242;11.654;2022-09-17T01:51:07;1.70;;;1.55;;
62509;SDS011;48558;48.242;11.654;2022-09-17T01:55:25;1.42;;;1.38;;
62509;SDS011;48558;48.242;11.654;2022-09-17T01:59:45;3.08;;;1.38;;
62509;SDS011;48558;48.242;11.654;2022-09-17T02:13:28;4.28;;;1.67;;
62509;SDS011;48558;48.242;11.654;2022-09-17T02:17:47;1.13;;;1.10;;
62509;SDS011;48558;48.242;11.654;2022-09-17T02:22:11;2.17;;;1.80;;
62509;SDS011;48558;48.242;11.654;2022-09-17T02:26:34;2.80;;;1.40;;
62509;SDS011;48558;48.242;11.654;2022-09-17T02:31:04;1.30;;;1.30;;
62509;SDS011;48558;48.242;11.654;2022-09-17T02:35:17;2.47;;;1.67;;
62509;SDS011;48558;48.242;11.654;2022-09-17T02:39:31;1.85;;;1.75;;
62509;SDS011;48558;48.242;11.654;2022-09-17T03:01:28;3.33;;;1.83;;
62509;SDS011;48558;48.242;11.654;2022-09-17T03:05:55;1.08;;;1.08;;
62509;SDS011;48558;48.242;11.654;2022-09-17T03:10:10;1.40;;;1.25;;
62509;SDS011;48558;48.242;11.654;2022-09-17T03:14:23;1.33;;;1.23;;
62509;SDS011;48558;48.242;11.654;2022-09-17T03:18:36;3.15;;;1.60;;
62509;SDS011;48558;48.242;11.654;2022-09-17T03:22:50;1.52;;;1.42;;
62509;SDS011;48558;48.242;11.654;2022-09-17T03:27:04;3.13;;;1.33;;
62509;SDS011;48558;48.242;11.654;2022-09-17T03:31:17;2.55;;;1.42;;
62509;SDS011;48558;48.242;11.654;2022-09-17T03:35:41;1.23;;;1.23;;
62509;SDS011;48558;48.242;11.654;2022-09-17T03:39:55;2.22;;;1.52;;
62509;SDS011;48558;48.242;11.654;2022-09-17T03:44:08;1.55;;;1.30;;
62509;SDS011;48558;48.242;11.654;2022-09-17T03:48:24;2.75;;;1.35;;
62509;SDS011;48558;48.242;11.654;2022-09-17T03:52:41;1.40;;;1.30;;
62509;SDS011;48558;48.242;11.654;2022-09-17T03:56:55;1.60;;;1.50;;
62509;SDS011;48558;48.242;11.654;2022-09-17T04:01:08;1.38;;;1.27;;
62509;SDS011;48558;48.242;11.654;2022-09-17T04:05:21;0.95;;;0.95;;
62509;SDS011;48558;48.242;11.654;2022-09-17T04:09:35;1.15;;;0.88;;
62509;SDS011;48558;48.242;11.654;2022-09-17T04:13:48;1.40;;;1.20;;
62509;SDS011;48558;48.242;11.654;2022-09-17T04:18:02;2.78;;;1.45;;
62509;SDS011;48558;48.242;11.654;2022-09-17T04:22:15;1.80;;;1.08;;
62509;SDS011;48558;48.242;11.654;2022-09-17T04:26:28;2.15;;;1.27;;
62509;SDS011;48558;48.242;11.654;2022-09-17T04:30:41;1.35;;;1.23;;
62509;SDS011;48558;48.242;11.654;2022-09-17T04:34:55;1.77;;;1.60;;
62509;SDS011;48558;48.242;11.654;2022-09-17T04:39:08;1.70;;;1.60;;
62509;SDS011;48558;48.242;11.654;2022-09-17T04:43:21;5.13;;;1.40;;
62509;SDS011;48558;48.242;11.654;2022-09-17T04:47:37;2.10;;;1.52;;
62509;SDS011;48558;48.242;11.654;2022-09-17T04:51:51;1.27;;;1.17;;
62509;SDS011;48558;48.242;11.654;2022-09-17T04:56:04;1.20;;;1.15;;
62509;SDS011;48558;48.242;11.654;2022-09-17T05:00:18;1.10;;;1.10;;
62509;SDS011;48558;48.242;11.654;2022-09-17T05:04:41;1.27;;;1.17;;
62509;SDS011;48558;48.242;11.654;2022-09-17T05:08:54;1.13;;;1.13;;
62509;SDS011;48558;48.242;11.654;2022-09-17T05:13:07;2.75;;;1.25;;
62509;SDS011;48558;48.242;11.654;2022-09-17T05:17:20;1.52;;;1.42;;
62509;SDS011;48558;48.242;11.654;2022-09-17T05:21:35;1.17;;;1.17;;
62509;SDS011;48558;48.242;11.654;2022-09-17T05:25:48;1.73;;;1.50;;
62509;SDS011;48558;48.242;11.654;2022-09-17T05:30:01;5.07;;;1.15;;
62509;SDS011;48558;48.242;11.654;2022-09-17T05:34:15;1.30;;;1.20;;
62509;SDS011;48558;48.242;11.654;2022-09-17T05:38:28;5.30;;;1.15;;
62509;SDS011;48558;48.242;11.654;2022-09-17T05:42:41;2.63;;;1.13;;
62509;SDS011;48558;48.242;11.654;2022-09-17T05:47:05;1.75;;;1.10;;
62509;SDS011;48558;48.242;11.654;2022-09-17T05:51:19;1.20;;;1.10;;
62509;SDS011;48558;48.242;11.654;2022-09-17T05:55:33;1.27;;;1.17;;
62509;SDS011;48558;48.242;11.654;2022-09-17T05:59:49;1.30;;;1.20;;
62509;SDS011;48558;48.242;11.654;2022-09-17T06:04:03;2.08;;;0.98;;
62509;SDS011;48558;48.242;11.654;2022-09-17T06:08:16;2.72;;;1.10;;
62509;SDS011;48558;48.242;11.654;2022-09-17T06:12:29;4.03;;;1.30;;
62509;SDS011;48558;48.242;11.654;2022-09-17T06:16:42;1.40;;;1.30;;
62509;SDS011;48558;48.242;11.654;2022-09-17T06:20:59;3.40;;;1.42;;
62509;SDS011;48558;48.242;11.654;2022-09-17T06:25:15;3.70;;;1.08;;
62509;SDS011;48558;48.242;11.654;2022-09-17T06:29:28;3.15;;;1.30;;
62509;SDS011;48558;48.242;11.654;2022-09-17T06:33:41;3.15;;;1.30;;
62509;SDS011;48558;48.242;11.654;2022-09-17T06:37:54;3.85;;;1.30;;
62509;SDS011;48558;48.242;11.654;2022-09-17T06:42:07;3.72;;;1.52;;
62509;SDS011;48558;48.242;11.654;2022-09-17T06:46:20;3.35;;;1.30;;
62509;SDS011;48558;48.242;11.654;2022-09-17T06:50:33;3.42;;;1.17;;
62509;SDS011;48558;48.242;11.654;2022-09-17T06:54:53;1.88;;;1.20;;
62509;SDS011;48558;48.242;11.654;2022-09-17T06:59:06;3.65;;;1.30;;
62509;SDS011;48558;48.242;11.654;2022-09-17T07:03:19;3.10;;;1.35;;
62509;SDS011;48558;48.242;11.654;2022-09-17T07:07:34;3.95;;;1.50;;
62509;SDS011;48558;48.242;11.654;2022-09-17T07:11:47;1.30;;;1.10;;
62509;SDS011;48558;48.242;11.654;2022-09-17T07:16:02;3.03;;;1.10;;
62509;SDS011;48558;48.242;11.654;2022-09-17T07:20:17;3.10;;;1.10;;
62509;SDS011;48558;48.242;11.654;2022-09-17T07:24:31;1.65;;;0.98;;
62509;SDS011;48558;48.242;11.654;2022-09-17T07:28:45;1.20;;;1.10;;
62509;SDS011;48558;48.242;11.654;2022-09-17T07:33:00;2.10;;;1.20;;
62509;SDS011;48558;48.242;11.654;2022-09-17T07:37:14;2.58;;;1.05;;
62509;SDS011;48558;48.242;11.654;2022-09-17T07:41:28;4.80;;;1.55;;
62509;SDS011;48558;48.242;11.654;2022-09-17T07:45:41;3.53;;;1.35;;
62509;SDS011;48558;48.242;11.654;2022-09-17T07:49:55;1.90;;;1.10;;
62509;SDS011;48558;48.242;11.654;2022-09-17T07:54:08;2.17;;;1.00;;
62509;SDS011;48558;48.242;11.654;2022-09-17T07:58:22;2.72;;;0.77;;
62509;SDS011;48558;48.242;11.654;2022-09-17T08:02:36;2.67;;;0.75;;
62509;SDS011;48558;48.242;11.654;2022-09-17T08:06:50;1.75;;;0.88;;
62509;SDS011;48558;48.242;11.654;2022-09-17T08:11:12;5.80;;;1.08;;
62509;SDS011;48558;48.242;11.654;2022-09-17T08:15:51;2.75;;;0.93;;
62509;SDS011;48558;48.242;11.654;2022-09-17T08:20:04;3.20;;;0.88;;
62509;SDS011;48558;48.242;11.654;2022-09-17T08:24:18;2.42;;;0.90;;
62509;SDS011;48558;48.242;11.654;2022-09-17T08:28:33;5.70;;;1.10;;
62509;SDS011;48558;48.242;11.654;2022-09-17T08:32:46;2.22;;;1.05;;
62509;SDS011;48558;48.242;11.654;2022-09-17T08:37:00;4.70;;;1.10;;
62509;SDS011;48558;48.242;11.654;2022-09-17T08:41:27;1.45;;;0.88;;
62509;SDS011;48558;48.242;11.654;2022-09-17T08:46:01;4.30;;;0.98;;
62509;SDS011;48558;48.242;11.654;2022-09-17T08:50:15;1.98;;;1.33;;
62509;SDS011;48558;48.242;11.654;2022-09-17T08:55:26;2.42;;;1.20;;
62509;SDS011;48558;48.242;11.654;2022-09-17T09:00:08;3.55;;;0.85;;
62509;SDS011;48558;48.242;11.654;2022-09-17T09:09:10;2.00;;;1.08;;
62509;SDS011;48558;48.242;11.654;2022-09-17T09:13:19;1.52;;;1.05;;
62509;SDS011;48558;48.242;11.654;2022-09-17T09:17:41;5.18;;;1.13;;
62509;SDS011;48558;48.242;11.654;2022-09-17T09:26:16;3.20;;;1.25;;
62509;SDS011;48558;48.242;11.654;2022-09-17T09:30:37;1.83;;;0.70;;
62509;SDS011;48558;48.242;11.654;2022-09-17T09:35:16;1.88;;;1.00;;
62509;SDS011;48558;48.242;11.654;2022-09-17T09:39:32;4.25;;;1.13;;
62509;SDS011;48558;48.242;11.654;2022-09-17T09:44:03;1.80;;;1.00;;
62509;SDS011;48558;48.242;11.654;2022-09-17T09:48:31;2.55;;;0.85;;
62509;SDS011;48558;48.242;11.654;2022-09-17T09:53:09;3.42;;;1.27;;
62509;SDS011;48558;48.242;11.654;2022-09-17T09:57:31;2.45;;;1.13;;
62509;SDS011;48558;48.242;11.654;2022-09-17T10:01:51;4.30;;;1.42;;
62509;SDS011;48558;48.242;11.654;2022-09-17T10:06:05;3.97;;;1.27;;
62509;SDS011;48558;48.242;11.654;2022-09-17T10:10:23;1.65;;;0.70;;
62509;SDS011;48558;48.242;11.654;2022-09-17T10:14:43;2.45;;;0.90;;
62509;SDS011;48558;48.242;11.654;2022-09-17T10:23:21;2.50;;;1.30;;
62509;SDS011;48558;48.242;11.654;2022-09-17T10:27:37;1.30;;;1.20;;
62509;SDS011;48558;48.242;11.654;2022-09-17T10:31:57;2.40;;;1.33;;
62509;SDS011;48558;48.242;11.654;2022-09-17T10:36:11;2.67;;;1.40;;
62509;SDS011;48558;48.242;11.654;2022-09-17T10:40:27;2.78;;;1.33;;
62509;SDS011;48558;48.242;11.654;2022-09-17T10:53:57;3.85;;;1.13;;
62509;SDS011;48558;48.242;11.654;2022-09-17T11:36:01;3.33;;;1.15;;
62509;SDS011;48558;48.242;11.654;2022-09-17T11:40:34;2.35;;;0.90;;
62509;SDS011;48558;48.242;11.654;2022-09-17T11:44:53;2.42;;;0.75;;
62509;SDS011;48558;48.242;11.654;2022-09-17T11:49:33;0.90;;;0.90;;
62509;SDS011;48558;48.242;11.654;2022-09-17T12:03:01;0.70;;;0.70;;
62509;SDS011;48558;48.242;11.654;2022-09-17T12:12:13;3.30;;;1.20;;
62509;SDS011;48558;48.242;11.654;2022-09-17T12:16:52;1.25;;;1.08;;
62509;SDS011;48558;48.242;11.654;2022-09-17T12:21:10;1.55;;;0.98;;
62509;SDS011;48558;48.242;11.654;2022-09-17T12:25:33;1.38;;;1.00;;
62509;SDS011;48558;48.242;11.654;2022-09-17T12:30:15;1.70;;;0.90;;
62509;SDS011;48558;48.242;11.654;2022-09-17T12:34:56;3.20;;;0.88;;
62509;SDS011;48558;48.242;11.654;2022-09-17T12:52:56;3.28;;;1.00;;
62509;SDS011;48558;48.242;11.654;2022-09-17T12:57:39;2.28;;;0.70;;
62509;SDS011;48558;48.242;11.654;2022-09-17T13:02:01;1.90;;;1.20;;
62509;SDS011;48558;48.242;11.654;2022-09-17T13:06:30;1.88;;;0.90;;
62509;SDS011;48558;48.242;11.654;2022-09-17T13:11:19;1.98;;;0.90;;
62509;SDS011;48558;48.242;11.654;2022-09-17T13:19:55;1.17;;;0.70;;
62509;SDS011;48558;48.242;11.654;2022-09-17T13:24:18;1.25;;;0.98;;
62509;SDS011;48558;48.242;11.654;2022-09-17T13:32:58;0.90;;;0.70;;
62509;SDS011;48558;48.242;11.654;2022-09-17T13:37:18;1.33;;;0.60;;
62509;SDS011;48558;48.242;11.654;2022-09-17T13:41:35;0.82;;;0.73;;
62509;SDS011;48558;48.242;11.654;2022-09-17T13:50:11;0.80;;;0.80;;
62509;SDS011;48558;48.242;11.654;2022-09-17T13:54:38;2.70;;;0.80;;
62509;SDS011;48558;48.242;11.654;2022-09-17T13:58:51;0.50;;;0.50;;
62509;SDS011;48558;48.242;11.654;2022-09-17T14:07:46;0.75;;;0.70;;
62509;SDS011;48558;48.242;11.654;2022-09-17T14:12:04;1.30;;;1.20;;
62509;SDS011;48558;48.242;11.654;2022-09-17T14:17:02;1.73;;;0.90;;
62509;SDS011;48558;48.242;11.654;2022-09-17T14:21:54;2.40;;;1.27;;
62509;SDS011;48558;48.242;11.654;2022-09-17T14:25:58;1.30;;;1.17;;
62509;SDS011;48558;48.242;11.654;2022-09-17T14:30:25;1.67;;;1.10;;
62509;SDS011;48558;48.242;11.654;2022-09-17T14:34:41;2.50;;;1.20;;
62509;SDS011;48558;48.242;11.654;2022-09-17T14:38:55;3.03;;;0.80;;
62509;SDS011;48558;48.242;11.654;2022-09-17T14:43:12;0.57;;;0.57;;
62509;SDS011;48558;48.242;11.654;2022-09-17T14:47:32;0.77;;;0.77;;
62509;SDS011;48558;48.242;11.654;2022-09-17T14:51:45;0.77;;;0.60;;
62509;SDS011;48558;48.242;11.654;2022-09-17T14:55:59;0.90;;;0.75;;
62509;SDS011;48558;48.242;11.654;2022-09-17T15:00:17;3.47;;;1.20;;
62509;SDS011;48558;48.242;11.654;2022-09-17T15:04:36;1.42;;;0.80;;
62509;SDS011;48558;48.242;11.654;2022-09-17T15:09:02;0.65;;;0.65;;
62509;SDS011;48558;48.242;11.654;2022-09-17T15:13:20;1.52;;;0.80;;
62509;SDS011;48558;48.242;11.654;2022-09-17T15:17:40;0.40;;;0.40;;
62509;SDS011;48558;48.242;11.654;2022-09-17T15:21:54;1.33;;;0.65;;
62509;SDS011;48558;48.242;11.654;2022-09-17T15:26:10;1.30;;;0.60;;
62509;SDS011;48558;48.242;11.654;2022-09-17T15:30:25;2.30;;;0.57;;
62509;SDS011;48558;48.242;11.654;2022-09-17T15:34:39;0.40;;;0.40;;
62509;SDS011;48558;48.242;11.654;2022-09-17T15:38:53;0.35;;;0.30;;
62509;SDS011;48558;48.242;11.654;2022-09-17T15:52:18;4.40;;;1.20;;
62509;SDS011;48558;48.242;11.654;2022-09-17T15:57:01;1.20;;;0.43;;
62509;SDS011;48558;48.242;11.654;2022-09-17T16:05:44;1.52;;;0.55;;
62509;SDS011;48558;48.242;11.654;2022-09-17T16:09:59;0.50;;;0.50;;
62509;SDS011;48558;48.242;11.654;2022-09-17T16:14:12;1.00;;;0.52;;
62509;SDS011;48558;48.242;11.654;2022-09-17T16:18:25;1.73;;;1.02;;
62509;SDS011;48558;48.242;11.654;2022-09-17T16:22:39;1.17;;;0.63;;
62509;SDS011;48558;48.242;11.654;2022-09-17T16:26:53;2.30;;;0.70;;
62509;SDS011;48558;48.242;11.654;2022-09-17T16:31:07;0.65;;;0.50;;
62509;SDS011;48558;48.242;11.654;2022-09-17T16:35:25;0.50;;;0.50;;
62509;SDS011;48558;48.242;11.654;2022-09-17T16:39:38;0.52;;;0.20;;
62509;SDS011;48558;48.242;11.654;2022-09-17T16:43:52;1.30;;;0.60;;
62509;SDS011;48558;48.242;11.654;2022-09-17T16:48:05;0.68;;;0.40;;
62509;SDS011;48558;48.242;11.654;2022-09-17T16:52:18;1.67;;;0.50;;
62509;SDS011;48558;48.242;11.654;2022-09-17T16:56:32;0.10;;;0.10;;
62509;SDS011;48558;48.242;11.654;2022-09-17T17:00:47;0.40;;;0.40;;
62509;SDS011;48558;48.242;11.654;2022-09-17T17:05:13;0.30;;;0.30;;
62509;SDS011;48558;48.242;11.654;2022-09-17T17:09:27;1.33;;;0.40;;
62509;SDS011;48558;48.242;11.654;2022-09-17T17:13:41;0.60;;;0.60;;
62509;SDS011;48558;48.242;11.654;2022-09-17T17:17:54;0.47;;;0.47;;
62509;SDS011;48558;48.242;11.654;2022-09-17T17:22:09;1.40;;;0.47;;
62509;SDS011;48558;48.242;11.654;2022-09-17T17:26:23;0.60;;;0.60;;
62509;SDS011;48558;48.242;11.654;2022-09-17T17:30:36;0.88;;;0.38;;
62509;SDS011;48558;48.242;11.654;2022-09-17T17:34:51;0.70;;;0.60;;
62509;SDS011;48558;48.242;11.654;2022-09-17T17:39:05;0.40;;;0.40;;
62509;SDS011;48558;48.242;11.654;2022-09-17T17:43:18;1.13;;;0.93;;
62509;SDS011;48558;48.242;11.654;2022-09-17T17:47:31;0.60;;;0.57;;
62509;SDS011;48558;48.242;11.654;2022-09-17T17:51:46;0.80;;;0.80;;
62509;SDS011;48558;48.242;11.654;2022-09-17T17:56:01;0.55;;;0.55;;
62509;SDS011;48558;48.242;11.654;2022-09-17T18:00:17;0.38;;;0.38;;
62509;SDS011;48558;48.242;11.654;2022-09-17T18:04:30;0.50;;;0.50;;
62509;SDS011;48558;48.242;11.654;2022-09-17T18:08:43;0.60;;;0.52;;
62509;SDS011;48558;48.242;11.654;2022-09-17T18:12:56;0.50;;;0.50;;
62509;SDS011;48558;48.242;11.654;2022-09-17T18:17:10;0.43;;;0.43;;
62509;SDS011;48558;48.242;11.654;2022-09-17T18:21:24;0.55;;;0.55;;
62509;SDS011;48558;48.242;11.654;2022-09-17T18:25:39;1.00;;;0.60;;
62509;SDS011;48558;48.242;11.654;2022-09-17T18:29:56;0.95;;;0.65;;
62509;SDS011;48558;48.242;11.654;2022-09-17T18:34:11;0.70;;;0.68;;
62509;SDS011;48558;48.242;11.654;2022-09-17T18:38:28;1.65;;;0.80;;
62509;SDS011;48558;48.242;11.654;2022-09-17T18:42:42;0.60;;;0.60;;
62509;SDS011;48558;48.242;11.654;2022-09-17T18:46:55;0.55;;;0.55;;
62509;SDS011;48558;48.242;11.654;2022-09-17T18:51:09;2.58;;;0.70;;
62509;SDS011;48558;48.242;11.654;2022-09-17T18:55:24;0.65;;;0.65;;
62509;SDS011;48558;48.242;11.654;2022-09-17T18:59:37;0.57;;;0.57;;
62509;SDS011;48558;48.242;11.654;2022-09-17T19:03:51;0.85;;;0.80;;
62509;SDS011;48558;48.242;11.654;2022-09-17T19:08:05;0.95;;;0.80;;
62509;SDS011;48558;48.242;11.654;2022-09-17T19:12:18;0.52;;;0.52;;
62509;SDS011;48558;48.242;11.654;2022-09-17T19:16:32;1.00;;;0.60;;
62509;SDS011;48558;48.242;11.654;2022-09-17T19:20:58;1.30;;;0.82;;
62509;SDS011;48558;48.242;11.654;2022-09-17T19:25:18;1.00;;;0.85;;
62509;SDS011;48558;48.242;11.654;2022-09-17T19:29:32;1.42;;;0.70;;
62509;SDS011;48558;48.242;11.654;2022-09-17T19:33:45;0.90;;;0.90;;
62509;SDS011;48558;48.242;11.654;2022-09-17T19:37:59;3.42;;;1.10;;
62509;SDS011;48558;48.242;11.654;2022-09-17T19:42:12;0.80;;;0.80;;
62509;SDS011;48558;48.242;11.654;2022-09-17T19:46:25;0.90;;;0.90;;
62509;SDS011;48558;48.242;11.654;2022-09-17T19:50:48;1.20;;;0.77;;
62509;SDS011;48558;48.242;11.654;2022-09-17T19:55:02;0.88;;;0.80;;
62509;SDS011;48558;48.242;11.654;2022-09-17T19:59:21;2.22;;;1.20;;
62509;SDS011;48558;48.242;11.654;2022-09-17T20:03:36;0.75;;;0.70;;
62509;SDS011;48558;48.242;11.654;2022-09-17T20:07:50;1.08;;;0.98;;
62509;SDS011;48558;48.242;11.654;2022-09-17T20:12:03;0.98;;;0.98;;
62509;SDS011;48558;48.242;11.654;2022-09-17T20:16:17;2.03;;;1.02;;
62509;SDS011;48558;48.242;11.654;2022-09-17T20:20:32;1.85;;;1.10;;
62509;SDS011;48558;48.242;11.654;2022-09-17T20:24:45;1.48;;;1.02;;
62509;SDS011;48558;48.242;11.654;2022-09-17T20:29:02;2.88;;;0.88;;
62509;SDS011;48558;48.242;11.654;2022-09-17T20:33:15;2.47;;;1.58;;
62509;SDS011;48558;48.242;11.654;2022-09-17T20:42:08;3.13;;;0.90;;
62509;SDS011;48558;48.242;11.654;2022-09-17T20:46:21;1.50;;;0.90;;
62509;SDS011;48558;48.242;11.654;2022-09-17T20:50:40;0.80;;;0.57;;
62509;SDS011;48558;48.242;11.654;2022-09-17T20:54:53;1.00;;;0.65;;
62509;SDS011;48558;48.242;11.654;2022-09-17T20:59:12;2.03;;;0.93;;
62509;SDS011;48558;48.242;11.654;2022-09-17T21:03:28;0.60;;;0.60;;
62509;SDS011;48558;48.242;11.654;2022-09-17T21:07:42;0.68;;;0.68;;
62509;SDS011;48558;48.242;11.654;2022-09-17T21:11:55;2.00;;;1.10;;
62509;SDS011;48558;48.242;11.654;2022-09-17T21:16:08;3.03;;;0.95;;
62509;SDS011;48558;48.242;11.654;2022-09-17T21:20:22;1.20;;;0.98;;
62509;SDS011;48558;48.242;11.654;2022-09-17T21:24:35;1.85;;;1.00;;
62509;SDS011;48558;48.242;11.654;2022-09-17T21:28:50;0.80;;;0.80;;
62509;SDS011;48558;48.242;11.654;2022-09-17T21:33:04;2.00;;;1.20;;
62509;SDS011;48558;48.242;11.654;2022-09-17T21:37:27;1.67;;;0.73;;
62509;SDS011;48558;48.242;11.654;2022-09-17T21:41:41;1.77;;;0.82;;
62509;SDS011;48558;48.242;11.654;2022-09-17T21:45:58;0.80;;;0.80;;
62509;SDS011;48558;48.242;11.654;2022-09-17T21:50:11;0.82;;;0.60;;
62509;SDS011;48558;48.242;11.654;2022-09-17T21:54:33;2.30;;;0.60;;
62509;SDS011;48558;48.242;11.654;2022-09-17T21:58:49;0.82;;;0.57;;
62509;SDS011;48558;48.242;11.654;2022-09-17T22:03:13;0.85;;;0.47;;
62509;SDS011;48558;48.242;11.654;2022-09-17T22:07:26;0.30;;;0.30;;
62509;SDS011;48558;48.242;11.654;2022-09-17T22:11:40;0.25;;;0.25;;
62509;SDS011;48558;48.242;11.654;2022-09-17T22:15:55;0.80;;;0.60;;
62509;SDS011;48558;48.242;11.654;2022-09-17T22:20:12;0.30;;;0.30;;
62509;SDS011;48558;48.242;11.654;2022-09-17T22:24:26;1.10;;;0.40;;
62509;SDS011;48558;48.242;11.654;2022-09-17T22:28:40;0.20;;;0.20;;
62509;SDS011;48558;48.242;11.654;2022-09-17T22:32:53;1.10;;;0.32;;
62509;SDS011;48558;48.242;11.654;2022-09-17T22:37:06;0.30;;;0.30;;
62509;SDS011;48558;48.242;11.654;2022-09-17T22:41:20;1.85;;;0.50;;
62509;SDS011;48558;48.242;11.654;2022-09-17T22:45:38;2.42;;;0.70;;
62509;SDS011;48558;48.242;11.654;2022-09-17T22:49:51;0.20;;;0.20;;
62509;SDS011;48558;48.242;11.654;2022-09-17T22:54:05;0.32;;;0.30;;
62509;SDS011;48558;48.242;11.654;2022-09-17T22:58:19;0.98;;;0.50;;
62509;SDS011;48558;48.242;11.654;2022-09-17T23:02:35;0.45;;;0.45;;
62509;SDS011;48558;48.242;11.654;2022-09-17T23:06:48;0.40;;;0.40;;
62509;SDS011;48558;48.242;11.654;2022-09-17T23:11:02;0.20;;;0.20;;
62509;SDS011;48558;48.242;11.654;2022-09-17T23:15:16;1.92;;;0.75;;
62509;SDS011;48558;48.242;11.654;2022-09-17T23:19:37;1.13;;;0.45;;
62509;SDS011;48558;48.242;11.654;2022-09-17T23:23:51;0.68;;;0.50;;
62509;SDS011;48558;48.242;11.654;2022-09-17T23:28:04;1.30;;;0.60;;
62509;SDS011;48558;48.242;11.654;2022-09-17T23:32:17;3.05;;;0.80;;
62509;SDS011;48558;48.242;11.654;2022-09-17T23:36:33;0.90;;;0.70;;
62509;SDS011;48558;48.242;11.654;2022-09-17T23:40:48;1.90;;;0.90;;
62509;SDS011;48558;48.242;11.654;2022-09-17T23:45:01;1.45;;;0.80;;
62509;SDS011;48558;48.242;11.654;2022-09-17T23:49:15;1.70;;;0.57;;
62509;SDS011;48558;48.242;11.654;2022-09-17T23:53:29;2.53;;;0.80;;
62509;SDS011;48558;48.242;11.654;2022-09-17T23:57:43;1.02;;;0.70;;
